Time;durP1;ratioP1;P1;durP2;ratioP2;P2;SDS_P1;SDS_P2;PMS_P1;PMS_P2;Temp;Humidity;BMP_temperature;BMP_pressure;BME280_temperature;BME280_humidity;BME280_pressure;Samples;Min_cycle;Max_cycle;Signal;HPM_P1;HPM_P2
2022/05/29 04:02:40;;;;;;;1.97;1.23;;;10.60;96.30;;;;;;4956087;23;20493;-75
2022/05/29 04:05:07;;;;;;;2.67;1.13;;;10.80;96.30;;;;;;4957234;29;20466;-76
2022/05/29 04:13:02;;;;;;;3.67;1.10;;;11.90;96.30;;;;;;4957521;29;20398;-77
2022/05/29 04:21:59;;;;;;;1.80;1.63;;;13.50;96.30;;;;;;5708178;23;21085;-77
2022/05/29 04:24:24;;;;;;;3.77;2.00;;;13.40;96.30;;;;;;4975970;28;20508;-76
2022/05/29 04:26:51;;;;;;;4.57;2.20;;;13.50;96.30;;;;;;4976257;28;20269;-78
2022/05/29 04:29:18;;;;;;;4.33;1.70;;;13.90;96.30;;;;;;4958082;28;20263;-76
2022/05/29 04:34:28;;;;;;;1.70;1.07;;;14.40;95.60;;;;;;4976071;28;20408;-76
2022/05/29 04:36:55;;;;;;;1.03;0.90;;;14.70;93.90;;;;;;4976082;28;20449;-76
2022/05/29 04:39:20;;;;;;;8.77;2.83;;;14.80;93.40;;;;;;4957862;28;20434;-76
2022/05/29 04:41:46;;;;;;;4.63;3.80;;;15.10;93.70;;;;;;4958238;28;20949;-76
2022/05/29 04:44:12;;;;;;;2.60;1.30;;;15.30;92.00;;;;;;4958193;28;20490;-76
2022/05/29 04:46:38;;;;;;;1.30;0.90;;;15.10;92.10;;;;;;4975800;28;20422;-76
2022/05/29 04:49:03;;;;;;;1.37;0.93;;;14.80;93.10;;;;;;4975208;28;20708;-76
2022/05/29 04:51:29;;;;;;;1.50;0.90;;;14.70;94.10;;;;;;4958350;28;20198;-76
2022/05/29 04:53:54;;;;;;;2.13;1.10;;;15.00;93.80;;;;;;4975747;28;20182;-76
2022/05/29 04:56:20;;;;;;;1.20;0.90;;;15.50;92.60;;;;;;4975658;28;20220;-76
2022/05/29 04:58:46;;;;;;;3.50;1.20;;;15.70;91.10;;;;;;4977450;28;20659;-76
2022/05/29 05:01:13;;;;;;;1.50;1.00;;;16.00;90.30;;;;;;4977973;28;20209;-77
2022/05/29 05:03:40;;;;;;;7.50;1.10;;;15.90;90.50;;;;;;4978585;28;20457;-76
2022/05/29 05:06:05;;;;;;;2.20;0.90;;;16.20;89.60;;;;;;4958250;28;20229;-76
2022/05/29 05:08:31;;;;;;;2.27;1.10;;;16.70;89.20;;;;;;4974505;28;20410;-76
2022/05/29 05:10:57;;;;;;;2.73;1.20;;;16.50;89.00;;;;;;4975285;28;20558;-76
2022/05/29 05:13:24;;;;;;;2.33;1.00;;;16.60;88.30;;;;;;4975331;28;20194;-76
2022/05/29 05:15:58;;;;;;;4.60;1.40;;;16.10;90.40;;;;;;4942011;28;20190;-77
2022/05/29 05:18:25;;;;;;;4.97;1.27;;;16.40;93.50;;;;;;4956536;28;21076;-76
2022/05/29 05:20:51;;;;;;;4.80;1.40;;;17.50;88.30;;;;;;4957814;28;20531;-76
2022/05/29 05:23:18;;;;;;;6.63;1.97;;;17.60;88.80;;;;;;4974997;28;20577;-77
2022/05/29 05:25:45;;;;;;;5.40;1.67;;;18.20;85.70;;;;;;4957658;28;20206;-78
2022/05/29 05:28:13;;;;;;;5.10;1.70;;;18.70;85.70;;;;;;4974567;28;20429;-76
2022/05/29 05:30:38;;;;;;;6.57;2.13;;;19.20;83.10;;;;;;4975156;28;20437;-77
2022/05/29 05:33:04;;;;;;;5.77;1.57;;;18.60;83.70;;;;;;4977585;28;20198;-78
2022/05/29 05:35:30;;;;;;;6.17;1.93;;;18.20;84.10;;;;;;4945011;28;20262;-78
2022/05/29 05:37:56;;;;;;;6.50;2.13;;;18.30;85.70;;;;;;4978163;28;20421;-78
2022/05/29 05:40:22;;;;;;;6.50;1.50;;;18.20;84.50;;;;;;4978470;28;20177;-78
2022/05/29 05:42:47;;;;;;;6.83;2.20;;;18.10;83.60;;;;;;4978026;28;20654;-78
2022/05/29 05:45:13;;;;;;;6.10;1.37;;;17.80;85.00;;;;;;4978281;28;20245;-78
2022/05/29 05:47:39;;;;;;;6.50;1.90;;;18.70;84.30;;;;;;4960504;28;20229;-79
2022/05/29 05:50:06;;;;;;;4.37;1.83;;;19.40;80.10;;;;;;4978362;28;20205;-78
2022/05/29 05:52:31;;;;;;;4.30;2.03;;;19.10;82.40;;;;;;4978622;28;20281;-79
2022/05/29 05:54:57;;;;;;;6.23;1.70;;;18.30;83.30;;;;;;4978766;28;20441;-78
2022/05/29 05:57:22;;;;;;;5.47;2.00;;;18.60;83.60;;;;;;4978625;28;20625;-78
2022/05/29 05:59:48;;;;;;;6.20;2.20;;;18.90;82.30;;;;;;4977795;28;20229;-78
2022/05/29 06:02:14;;;;;;;5.80;1.90;;;18.90;82.70;;;;;;4960750;28;20198;-78
2022/05/29 06:04:41;;;;;;;4.97;1.33;;;18.80;82.30;;;;;;4961231;28;20300;-77
2022/05/29 06:07:08;;;;;;;4.10;1.20;;;18.90;83.90;;;;;;4978256;28;20251;-77
2022/05/29 06:09:34;;;;;;;3.70;1.30;;;19.80;82.20;;;;;;4977883;28;20401;-79
2022/05/29 06:12:01;;;;;;;4.77;1.70;;;21.00;77.70;;;;;;4961358;28;21160;-78
2022/05/29 06:14:27;;;;;;;5.87;2.00;;;21.00;77.90;;;;;;4978729;28;20242;-78
2022/05/29 06:16:53;;;;;;;7.93;1.70;;;21.20;77.10;;;;;;4961565;28;20460;-78
2022/05/29 06:19:19;;;;;;;4.30;1.53;;;21.40;74.40;;;;;;4978375;28;20412;-78
2022/05/29 06:21:45;;;;;;;5.00;1.97;;;21.50;75.80;;;;;;4978195;28;20590;-77
2022/05/29 06:24:11;;;;;;;2.50;1.33;;;22.00;74.90;;;;;;4960854;28;20501;-79
2022/05/29 06:26:37;;;;;;;4.37;1.33;;;21.50;74.70;;;;;;4977372;28;20448;-76
2022/05/29 06:29:03;;;;;;;6.07;1.40;;;21.20;75.00;;;;;;4955971;28;20178;-77
2022/05/29 06:31:28;;;;;;;4.60;1.20;;;21.60;72.60;;;;;;4956593;28;20194;-76
2022/05/29 06:33:55;;;;;;;4.27;1.70;;;19.70;75.70;;;;;;4973911;28;20413;-76
2022/05/29 06:36:23;;;;;;;6.37;1.60;;;17.90;77.70;;;;;;4973859;28;20611;-76
2022/05/29 06:38:50;;;;;;;3.70;1.20;;;16.80;83.60;;;;;;4956161;28;20429;-76
2022/05/29 06:41:18;;;;;;;2.80;1.30;;;15.90;85.30;;;;;;4956578;28;20442;-77
2022/05/29 06:43:43;;;;;;;4.63;1.30;;;15.80;86.60;;;;;;4956506;28;20485;-78
2022/05/29 06:46:10;;;;;;;4.20;1.60;;;15.20;88.70;;;;;;4956506;28;20473;-76
2022/05/29 06:48:37;;;;;;;4.40;1.63;;;15.30;89.30;;;;;;4973122;28;20166;-76
2022/05/29 06:51:13;;;;;;;10.93;1.27;;;15.30;90.10;;;;;;4973557;28;20430;-76
2022/05/29 06:53:39;;;;;;;4.60;1.50;;;16.50;87.80;;;;;;4972454;28;20488;-76
2022/05/29 06:56:06;;;;;;;5.73;1.90;;;18.30;81.30;;;;;;4956091;28;20508;-76
2022/05/29 06:58:31;;;;;;;8.13;2.33;;;18.30;78.80;;;;;;4972787;28;20178;-76
2022/05/29 07:09:18;;;;;;;5.97;1.30;;;16.70;88.60;;;;;;4972664;28;20393;-78
2022/05/29 07:11:46;;;;;;;5.40;1.20;;;15.80;87.20;;;;;;4972970;28;20433;-75
2022/05/29 07:14:14;;;;;;;7.80;1.87;;;15.10;88.40;;;;;;4972998;28;20205;-76
2022/05/29 07:16:39;;;;;;;7.40;2.00;;;14.70;88.10;;;;;;4955751;28;20425;-76
2022/05/29 07:19:05;;;;;;;6.30;1.40;;;14.00;91.90;;;;;;4972297;28;20432;-76
2022/05/29 07:21:36;;;;;;;3.20;1.20;;;14.10;94.30;;;;;;4972789;28;20194;-75
2022/05/29 07:24:01;;;;;;;4.70;1.47;;;13.90;93.00;;;;;;4972844;28;20586;-76
2022/05/29 07:26:27;;;;;;;6.63;1.90;;;14.20;94.70;;;;;;4973027;28;20418;-77
2022/05/29 07:28:53;;;;;;;9.93;1.63;;;14.10;90.10;;;;;;4972371;28;20186;-75
2022/05/29 07:31:18;;;;;;;4.93;1.30;;;14.60;91.40;;;;;;4972762;28;20202;-76
2022/05/29 07:33:44;;;;;;;9.77;1.50;;;15.30;87.20;;;;;;4976321;28;20185;-75
2022/05/29 07:36:11;;;;;;;4.93;2.03;;;15.50;90.00;;;;;;4976884;28;20182;-78
2022/05/29 07:38:38;;;;;;;4.20;1.50;;;16.30;88.50;;;;;;4977669;28;20222;-78
2022/05/29 07:43:18;;;;;;;6.27;1.77;;;16.70;83.30;;;;;;4978933;28;20469;-77
2022/05/29 07:43:52;;;;;;;5.63;1.83;;;15.90;86.70;;;;;;4979623;28;20468;-77
2022/05/29 07:46:18;;;;;;;6.67;1.90;;;16.80;85.80;;;;;;4979023;28;20413;-79
2022/05/29 07:48:44;;;;;;;8.53;1.50;;;18.10;81.30;;;;;;4978974;28;20807;-78
2022/05/29 07:51:10;;;;;;;6.87;1.93;;;19.30;84.60;;;;;;4978319;28;20233;-77
2022/05/29 07:53:39;;;;;;;4.73;1.77;;;18.70;80.10;;;;;;4950274;29;20450;-78
2022/05/29 07:56:05;;;;;;;7.97;1.80;;;17.40;81.60;;;;;;4964397;28;20265;-76
2022/05/29 07:58:32;;;;;;;4.50;1.60;;;18.40;85.00;;;;;;4969947;28;20417;-76
2022/05/29 08:00:59;;;;;;;6.07;1.60;;;19.60;79.60;;;;;;4976681;28;20425;-77
2022/05/29 08:03:24;;;;;;;4.40;1.70;;;21.00;77.80;;;;;;4976302;28;20453;-78
2022/05/29 08:05:50;;;;;;;7.60;2.00;;;21.10;70.60;;;;;;4970701;28;20425;-77
2022/05/29 08:08:16;;;;;;;6.80;1.70;;;20.00;71.30;;;;;;4966779;28;20170;-76
2022/05/29 08:10:42;;;;;;;6.50;1.70;;;19.40;75.50;;;;;;4967198;28;20592;-76
2022/05/29 08:13:08;;;;;;;3.37;1.30;;;18.70;81.90;;;;;;4963984;28;20227;-76
2022/05/29 08:15:36;;;;;;;7.50;1.80;;;20.10;78.70;;;;;;4964315;28;20409;-78
2022/05/29 08:18:02;;;;;;;2.37;1.50;;;20.50;78.50;;;;;;4966317;28;20419;-76
2022/05/29 08:20:29;;;;;;;9.10;2.03;;;20.70;69.00;;;;;;4970634;28;20936;-77
2022/05/29 08:22:55;;;;;;;3.40;1.57;;;21.00;74.00;;;;;;4975376;28;20434;-76
2022/05/29 08:30:52;;;;;;;4.83;1.87;;;21.40;78.30;;;;;;4975048;28;20436;-76
2022/05/29 08:33:22;;;;;;;5.37;1.53;;;21.20;71.80;;;;;;4974994;28;20910;-76
2022/05/29 08:35:52;;;;;;;8.77;2.10;;;20.00;79.00;;;;;;4968985;28;20844;-76
2022/05/29 08:38:18;;;;;;;7.73;1.20;;;21.00;79.70;;;;;;4961142;28;20423;-76
2022/05/29 08:40:47;;;;;;;7.23;1.57;;;21.40;73.90;;;;;;4956093;28;20804;-75
2022/05/29 08:43:31;;;;;;;4.13;1.73;;;20.50;68.40;;;;;;4957630;28;20937;-76
2022/05/29 08:46:02;;;;;;;7.87;1.60;;;19.00;72.00;;;;;;4974628;28;20413;-75
2022/05/29 08:48:28;;;;;;;7.57;1.43;;;18.50;86.30;;;;;;4973999;28;20421;-75
2022/05/29 08:51:09;;;;;;;4.33;1.43;;;20.20;76.60;;;;;;4974277;28;21049;-76
2022/05/29 08:54:08;;;;;;;4.70;1.40;;;17.80;74.60;;;;;;4974397;28;20409;-75
2022/05/29 08:56:58;;;;;;;3.03;1.37;;;17.20;77.90;;;;;;4962177;28;20475;-75
2022/05/29 08:59:47;;;;;;;4.20;1.50;;;18.80;85.50;;;;;;4918331;28;20512;-75
2022/05/29 09:02:40;;;;;;;4.50;1.50;;;19.90;81.60;;;;;;4974559;28;20433;-75
2022/05/29 09:05:28;;;;;;;4.73;1.40;;;21.00;77.10;;;;;;4947958;28;20461;-76
2022/05/29 09:08:00;;;;;;;7.23;1.37;;;20.30;74.40;;;;;;4967996;28;20418;-75
2022/05/29 09:10:34;;;;;;;5.27;1.40;;;20.20;82.80;;;;;;4954860;28;20415;-74
2022/05/29 09:13:03;;;;;;;4.80;1.43;;;19.50;76.70;;;;;;4954968;28;20915;-76
2022/05/29 09:15:53;;;;;;;5.57;1.70;;;18.80;80.90;;;;;;4954963;28;20419;-75
2022/05/29 09:18:27;;;;;;;9.13;1.80;;;19.40;83.30;;;;;;4945051;29;20419;-75
2022/05/29 09:21:01;;;;;;;8.67;2.37;;;20.40;80.70;;;;;;4952816;28;20534;-78
2022/05/29 09:23:33;;;;;;;4.17;1.57;;;20.50;75.50;;;;;;4920266;29;999560;-78
2022/05/29 09:26:04;;;;;;;7.40;1.80;;;20.90;82.20;;;;;;4969573;28;20383;-77
2022/05/29 09:28:36;;;;;;;4.77;1.47;;;21.20;72.70;;;;;;4974471;28;20418;-76
2022/05/29 09:31:07;;;;;;;3.23;1.60;;;21.10;72.50;;;;;;4974786;28;20429;-76
2022/05/29 09:33:34;;;;;;;4.80;1.50;;;19.80;76.70;;;;;;4959230;28;20781;-77
2022/05/29 09:36:27;;;;;;;6.80;1.83;;;17.90;78.30;;;;;;4969274;28;20437;-76
2022/05/29 09:38:58;;;;;;;11.97;1.70;;;16.60;81.70;;;;;;4967789;28;20425;-77
2022/05/29 09:41:35;;;;;;;5.70;1.33;;;16.80;81.40;;;;;;4974146;28;20539;-78
2022/05/29 09:44:18;;;;;;;7.30;1.40;;;17.70;78.40;;;;;;4974779;28;20483;-77
2022/05/29 09:46:50;;;;;;;9.20;1.60;;;17.20;71.50;;;;;;4957997;28;20433;-78
2022/05/29 09:49:41;;;;;;;5.90;1.50;;;16.60;74.50;;;;;;4954263;29;20525;-77
2022/05/29 09:52:15;;;;;;;3.27;1.37;;;16.80;80.90;;;;;;4962062;28;20441;-76
2022/05/29 09:54:54;;;;;;;5.80;1.70;;;16.40;83.60;;;;;;4974413;28;20452;-77
2022/05/29 09:57:23;;;;;;;4.23;1.53;;;16.30;81.50;;;;;;4973680;28;20414;-77
2022/05/29 09:59:51;;;;;;;5.87;1.67;;;16.80;83.30;;;;;;4972369;28;20425;-76
2022/05/29 10:02:36;;;;;;;6.97;1.60;;;17.40;84.80;;;;;;4966652;28;20443;-77
2022/05/29 10:05:02;;;;;;;5.90;1.40;;;17.60;79.40;;;;;;4953107;29;20491;-76
2022/05/29 10:07:44;;;;;;;5.03;1.43;;;17.80;79.50;;;;;;4937305;29;20419;-77
2022/05/29 10:10:13;;;;;;;6.50;1.27;;;17.60;77.40;;;;;;4954989;29;20405;-77
2022/05/29 10:12:46;;;;;;;5.23;1.57;;;17.20;76.80;;;;;;4954788;29;20410;-76
2022/05/29 10:15:23;;;;;;;5.13;1.33;;;16.90;80.90;;;;;;4955185;29;20411;-78
2022/05/29 10:17:48;;;;;;;8.00;1.67;;;16.90;78.80;;;;;;4954998;29;20422;-78
2022/05/29 10:20:36;;;;;;;5.17;1.43;;;16.70;79.90;;;;;;4967512;28;20433;-77
2022/05/29 10:23:31;;;;;;;3.90;1.30;;;16.40;76.40;;;;;;4966098;28;20659;-78
2022/05/29 10:26:09;;;;;;;3.33;1.10;;;16.20;80.20;;;;;;4964548;28;20426;-79
2022/05/29 10:28:38;;;;;;;8.50;2.00;;;16.50;77.80;;;;;;4964735;28;20546;-78
2022/05/29 10:31:06;;;;;;;3.37;1.20;;;16.30;78.50;;;;;;4956862;28;20430;-79
2022/05/29 10:33:34;;;;;;;4.03;1.10;;;16.40;81.90;;;;;;4945005;28;20413;-78
2022/05/29 10:36:18;;;;;;;8.33;1.70;;;16.40;82.40;;;;;;4962202;28;20407;-78
2022/05/29 10:38:45;;;;;;;2.20;1.10;;;17.00;80.40;;;;;;4961482;28;20413;-77
2022/05/29 10:41:11;;;;;;;5.17;1.47;;;17.30;77.60;;;;;;4963036;28;20434;-77
2022/05/29 10:43:44;;;;;;;3.37;1.27;;;17.00;82.50;;;;;;4963448;28;20952;-77
2022/05/29 10:46:20;;;;;;;4.43;1.20;;;17.20;80.30;;;;;;4958729;28;20513;-77
2022/05/29 10:48:52;;;;;;;4.37;1.40;;;17.50;80.10;;;;;;4965976;28;20441;-77
2022/05/29 10:51:25;;;;;;;3.97;1.23;;;18.40;75.70;;;;;;4973568;28;20461;-78
2022/05/29 10:54:12;;;;;;;4.77;1.87;;;18.30;75.40;;;;;;4973712;28;20507;-77
2022/05/29 10:57:07;;;;;;;4.37;1.37;;;18.20;75.10;;;;;;4973728;28;20437;-77
2022/05/29 10:59:50;;;;;;;4.90;1.27;;;17.90;70.00;;;;;;4945951;28;20426;-78
2022/05/29 11:05:55;;;;;;;6.83;1.10;;;17.50;76.00;;;;;;4973363;28;20508;-77
2022/05/29 11:08:26;;;;;;;2.77;1.17;;;17.40;76.40;;;;;;4972563;28;20406;-78
2022/05/29 11:11:32;;;;;;;4.10;1.37;;;17.60;75.40;;;;;;4973523;28;20434;-78
2022/05/29 11:14:09;;;;;;;3.10;0.90;;;17.90;75.50;;;;;;4973119;28;20414;-78
2022/05/29 11:17:01;;;;;;;3.60;0.90;;;17.50;74.70;;;;;;4973146;28;20499;-75
2022/05/29 11:19:52;;;;;;;2.03;1.00;;;17.20;76.50;;;;;;4953418;28;20431;-77
2022/05/29 11:22:32;;;;;;;3.10;0.97;;;16.40;72.50;;;;;;4972095;28;20485;-78
2022/05/29 11:25:27;;;;;;;2.70;1.10;;;16.00;74.40;;;;;;4973043;28;20543;-78
2022/05/29 11:28:20;;;;;;;3.03;1.10;;;16.50;76.80;;;;;;4955497;28;20505;-78
2022/05/29 11:31:26;;;;;;;3.33;1.10;;;16.80;71.90;;;;;;4973179;28;20778;-78
2022/05/29 11:34:09;;;;;;;4.83;1.10;;;18.30;77.70;;;;;;4973264;28;20417;-78
2022/05/29 11:37:01;;;;;;;2.80;1.00;;;18.80;71.70;;;;;;4973661;28;20773;-81
2022/05/29 11:39:35;;;;;;;7.07;1.57;;;18.60;66.50;;;;;;4973401;28;20545;-80
2022/05/29 11:42:12;;;;;;;2.00;1.07;;;19.10;74.20;;;;;;4974353;28;20520;-80
2022/05/29 11:44:59;;;;;;;6.50;1.23;;;19.60;70.20;;;;;;4975468;28;20461;-80
2022/05/29 11:53:26;;;;;;;3.80;1.07;;;19.70;66.40;;;;;;4976556;28;20445;-80
2022/05/29 11:55:55;;;;;;;2.17;1.10;;;19.20;71.60;;;;;;4976382;28;20390;-80
2022/05/29 11:58:30;;;;;;;5.77;1.40;;;18.10;66.40;;;;;;4975804;28;20496;-80
2022/05/29 12:01:06;;;;;;;4.23;1.03;;;17.40;70.60;;;;;;4976114;28;20428;-80
2022/05/29 12:03:54;;;;;;;2.53;1.00;;;17.30;75.10;;;;;;4963152;28;20457;-80
2022/05/29 12:06:29;;;;;;;6.20;1.83;;;17.60;74.80;;;;;;4980816;28;20426;-80
2022/05/29 12:09:28;;;;;;;5.33;1.20;;;17.80;74.30;;;;;;4979970;28;20445;-80
2022/05/29 12:12:04;;;;;;;8.50;1.30;;;17.50;75.40;;;;;;4981100;28;20509;-79
2022/05/29 12:14:46;;;;;;;1.67;1.10;;;17.30;74.50;;;;;;4981097;28;20429;-79
2022/05/29 12:17:20;;;;;;;3.43;1.17;;;16.70;69.50;;;;;;4981265;28;20410;-79
2022/05/29 12:19:52;;;;;;;2.60;1.30;;;16.10;70.40;;;;;;4982235;28;20472;-79
2022/05/29 12:22:25;;;;;;;6.70;1.60;;;16.30;73.20;;;;;;4983841;28;20511;-79
2022/05/29 12:24:53;;;;;;;3.00;0.93;;;16.10;76.20;;;;;;4984640;28;20461;-80
2022/05/29 12:27:21;;;;;;;1.87;1.10;;;16.30;79.20;;;;;;4984858;28;20421;-79
2022/05/29 12:30:19;;;;;;;4.47;1.00;;;16.80;78.30;;;;;;4966791;28;20422;-80
2022/05/29 12:32:44;;;;;;;6.80;1.47;;;16.80;81.00;;;;;;4981105;28;20493;-79
2022/05/29 12:35:23;;;;;;;3.00;1.20;;;16.90;79.50;;;;;;4984452;28;20433;-80
2022/05/29 12:38:22;;;;;;;2.30;1.17;;;16.60;80.60;;;;;;4966606;28;20185;-79
2022/05/29 12:41:06;;;;;;;3.93;1.10;;;16.10;82.00;;;;;;4966267;28;20442;-79
2022/05/29 12:43:56;;;;;;;1.47;0.77;;;16.00;83.60;;;;;;4967045;28;20461;-79
2022/05/29 12:46:56;;;;;;;2.50;1.23;;;16.60;80.30;;;;;;4983603;28;20758;-78
2022/05/29 12:49:38;;;;;;;4.30;1.23;;;16.50;79.10;;;;;;4980279;28;20513;-78
2022/05/29 12:52:13;;;;;;;5.43;1.10;;;16.30;79.00;;;;;;4980497;28;20433;-79
2022/05/29 12:54:47;;;;;;;2.63;1.03;;;15.80;79.80;;;;;;4975289;28;20426;-80
2022/05/29 12:57:32;;;;;;;4.20;1.30;;;15.60;79.10;;;;;;4962741;29;20414;-78
2022/05/29 13:00:28;;;;;;;1.53;0.80;;;15.70;77.70;;;;;;4955099;29;20415;-76
2022/05/29 13:03:14;;;;;;;2.90;1.10;;;15.70;82.50;;;;;;4955539;29;20481;-76
2022/05/29 13:06:04;;;;;;;5.77;1.60;;;15.40;80.40;;;;;;4955741;29;20415;-76
2022/05/29 13:09:24;;;;;;;3.10;1.20;;;15.70;81.50;;;;;;4956370;28;20386;-77
2022/05/29 13:12:03;;;;;;;1.73;0.90;;;15.80;82.80;;;;;;4907339;29;20979;-78
2022/05/29 13:14:30;;;;;;;3.33;1.07;;;16.00;80.70;;;;;;4961285;28;20891;-79
2022/05/29 13:17:09;;;;;;;2.33;1.03;;;16.70;79.00;;;;;;4956117;29;20410;-77
2022/05/29 13:19:53;;;;;;;3.63;1.67;;;17.30;76.20;;;;;;4956028;29;20423;-76
2022/05/29 13:22:19;;;;;;;2.60;1.03;;;17.10;74.10;;;;;;4955923;29;20449;-76
2022/05/29 13:24:47;;;;;;;5.00;1.40;;;17.60;80.80;;;;;;4955982;29;20443;-76
2022/05/29 13:27:12;;;;;;;5.33;1.43;;;17.40;77.20;;;;;;4955998;29;20202;-75
2022/05/29 13:29:45;;;;;;;2.70;0.83;;;17.00;81.00;;;;;;4969367;28;20461;-80
2022/05/29 13:32:14;;;;;;;5.73;1.30;;;17.00;78.70;;;;;;4975173;28;20249;-76
2022/05/29 13:34:52;;;;;;;2.87;0.90;;;16.70;77.00;;;;;;4975168;28;20749;-77
2022/05/29 13:37:43;;;;;;;4.77;1.10;;;17.10;77.70;;;;;;4957697;28;20414;-80
2022/05/29 13:40:20;;;;;;;4.07;1.20;;;17.10;75.60;;;;;;4975095;28;20402;-79
2022/05/29 13:42:52;;;;;;;5.13;1.40;;;17.00;75.00;;;;;;4974987;28;20418;-78
2022/05/29 13:45:23;;;;;;;2.20;0.90;;;16.80;79.10;;;;;;4966886;28;21974;-77
2022/05/29 13:48:12;;;;;;;4.33;1.00;;;16.50;77.50;;;;;;4953044;28;20429;-78
2022/05/29 13:50:41;;;;;;;1.70;1.23;;;16.80;81.30;;;;;;4955575;28;20434;-77
2022/05/29 13:53:13;;;;;;;1.93;0.90;;;17.30;78.20;;;;;;4960298;28;20415;-77
2022/05/29 13:55:41;;;;;;;2.93;0.90;;;17.90;77.40;;;;;;4953951;28;20430;-77
2022/05/29 14:04:02;;;;;;;2.40;0.90;;;18.10;78.00;;;;;;4967463;28;20519;-77
2022/05/29 14:06:36;;;;;;;2.63;1.23;;;18.40;81.00;;;;;;4966733;28;20466;-78
2022/05/29 14:09:06;;;;;;;2.43;0.80;;;18.90;77.90;;;;;;4954074;28;20776;-77
2022/05/29 14:12:07;;;;;;;3.60;1.20;;;18.70;72.60;;;;;;4937575;29;20449;-78
2022/05/29 14:14:37;;;;;;;2.30;1.03;;;18.70;72.30;;;;;;4953917;28;20493;-77
2022/05/29 14:17:26;;;;;;;3.93;0.97;;;18.80;77.00;;;;;;4962487;28;20417;-77
2022/05/29 14:19:59;;;;;;;2.50;1.23;;;18.80;73.40;;;;;;4954152;28;20442;-77
2022/05/29 14:22:46;;;;;;;3.67;1.00;;;18.80;74.00;;;;;;4954402;28;20458;-77
2022/05/29 14:25:35;;;;;;;3.10;0.93;;;19.30;73.10;;;;;;4956111;28;21143;-77
2022/05/29 14:28:08;;;;;;;4.93;1.00;;;18.30;71.50;;;;;;4960474;28;20414;-78
2022/05/29 14:31:07;;;;;;;2.50;1.23;;;17.20;74.20;;;;;;4956594;28;20421;-78
2022/05/29 14:34:03;;;;;;;4.03;1.20;;;17.10;75.80;;;;;;4973495;28;20509;-78
2022/05/29 14:36:34;;;;;;;4.93;1.10;;;16.80;75.60;;;;;;4956256;28;20454;-78
2022/05/29 14:39:29;;;;;;;4.30;1.07;;;16.80;80.30;;;;;;4956416;28;20452;-78
2022/05/29 14:42:20;;;;;;;3.00;1.00;;;16.70;78.90;;;;;;4956047;28;20533;-78
2022/05/29 14:45:07;;;;;;;4.43;1.20;;;16.70;78.50;;;;;;4973622;28;20552;-78
2022/05/29 14:47:41;;;;;;;6.03;1.27;;;17.00;77.10;;;;;;4973568;28;20435;-78
2022/05/29 14:50:23;;;;;;;2.13;0.80;;;16.30;74.80;;;;;;4973762;28;20435;-78
2022/05/29 14:53:10;;;;;;;2.50;1.10;;;16.30;78.30;;;;;;4973699;28;20445;-77
2022/05/29 14:55:54;;;;;;;2.40;1.00;;;16.20;80.70;;;;;;4973688;28;20425;-79
2022/05/29 14:58:33;;;;;;;6.80;0.93;;;16.80;77.50;;;;;;4973619;28;20416;-78
2022/05/29 15:01:14;;;;;;;4.07;0.90;;;16.70;80.40;;;;;;4956259;28;20430;-77
2022/05/29 15:03:47;;;;;;;2.40;0.90;;;16.40;79.90;;;;;;4973375;28;20452;-76
2022/05/29 15:06:18;;;;;;;2.17;1.00;;;16.60;77.10;;;;;;4956217;28;20498;-77
2022/05/29 15:11:42;;;;;;;1.70;0.87;;;16.60;78.10;;;;;;4954225;29;20445;-76
2022/05/29 15:14:11;;;;;;;3.10;0.90;;;16.50;76.80;;;;;;4954141;29;20413;-76
2022/05/29 15:16:40;;;;;;;2.33;1.27;;;16.00;78.60;;;;;;4952956;29;20418;-76
2022/05/29 15:19:20;;;;;;;5.77;0.83;;;16.00;80.50;;;;;;4952671;29;20525;-76
2022/05/29 15:24:33;;;;;;;6.23;1.10;;;16.40;79.10;;;;;;4954644;28;20561;-78
2022/05/29 15:27:14;;;;;;;4.00;0.90;;;16.80;78.60;;;;;;4952592;29;20514;-78
2022/05/29 15:29:51;;;;;;;1.90;0.93;;;17.20;78.80;;;;;;4956612;28;20564;-78
2022/05/29 15:32:29;;;;;;;3.37;1.10;;;17.20;76.50;;;;;;4952754;29;20541;-76
2022/05/29 15:35:21;;;;;;;1.70;1.00;;;16.80;74.80;;;;;;4953966;28;20446;-78
2022/05/29 15:38:01;;;;;;;1.00;0.80;;;16.80;78.40;;;;;;4953914;28;20768;-77
2022/05/29 15:41:16;;;;;;;2.53;0.80;;;16.60;78.30;;;;;;4957739;28;20505;-78
2022/05/29 15:43:52;;;;;;;2.67;1.00;;;16.30;79.00;;;;;;4955464;28;20473;-77
2022/05/29 15:46:55;;;;;;;2.00;0.70;;;16.20;78.20;;;;;;4956635;28;20464;-77
2022/05/29 15:49:54;;;;;;;3.23;0.97;;;16.10;78.60;;;;;;4956409;28;20425;-76
2022/05/29 15:52:42;;;;;;;2.30;0.80;;;15.70;80.40;;;;;;4974222;28;20972;-76
2022/05/29 15:55:27;;;;;;;1.87;1.17;;;15.60;80.90;;;;;;4979013;28;20501;-81
2022/05/29 15:58:25;;;;;;;1.93;0.90;;;15.60;80.50;;;;;;4950428;28;20464;-79
2022/05/29 16:01:13;;;;;;;2.70;0.90;;;15.50;81.00;;;;;;4949333;29;20537;-77
2022/05/29 16:03:40;;;;;;;2.23;0.93;;;15.70;81.00;;;;;;4954684;28;20465;-77
2022/05/29 16:06:20;;;;;;;1.50;0.90;;;16.00;80.30;;;;;;4972015;28;20455;-78
2022/05/29 16:08:49;;;;;;;1.87;0.90;;;16.20;80.70;;;;;;4947182;28;20952;-77
2022/05/29 16:11:53;;;;;;;1.93;0.90;;;16.60;79.80;;;;;;4980224;28;20492;-76
2022/05/29 16:14:35;;;;;;;1.37;0.80;;;17.30;80.10;;;;;;4944477;28;20438;-77
2022/05/29 16:18:08;;;;;;;2.70;1.00;;;17.00;75.40;;;;;;4980093;28;20441;-78
2022/05/29 16:20:50;;;;;;;1.60;0.80;;;16.80;74.60;;;;;;4891820;29;20468;-80
2022/05/29 16:23:52;;;;;;;5.43;1.10;;;16.70;77.10;;;;;;4960194;29;20450;-76
2022/05/29 16:26:38;;;;;;;2.67;0.80;;;16.90;76.30;;;;;;4901306;29;21008;-78
2022/05/29 16:29:40;;;;;;;1.07;0.70;;;16.70;73.90;;;;;;4897512;29;20409;-76
2022/05/29 16:32:35;;;;;;;1.67;0.70;;;16.80;74.40;;;;;;4919306;29;20447;-76
2022/05/29 16:35:38;;;;;;;1.33;0.80;;;16.80;77.20;;;;;;4954424;28;20425;-79
2022/05/29 16:50:38;;;;;;;2.00;1.17;;;16.00;78.40;;;;;;4956480;29;20933;-77
2022/05/29 16:54:05;;;;;;;2.80;0.93;;;15.60;80.10;;;;;;4956515;29;20454;-78
2022/05/29 16:56:51;;;;;;;1.87;1.00;;;15.40;82.70;;;;;;4951251;28;20463;-77
2022/05/29 16:59:28;;;;;;;1.50;0.70;;;15.10;83.80;;;;;;4975755;28;20406;-77
2022/05/29 17:02:00;;;;;;;2.00;0.77;;;15.00;85.80;;;;;;4975588;28;20492;-77
2022/05/29 17:04:52;;;;;;;1.17;0.77;;;15.00;88.70;;;;;;4975338;28;20460;-80
2022/05/29 17:07:26;;;;;;;2.60;1.20;;;15.10;92.20;;;;;;4862339;29;20517;-77
2022/05/29 17:10:25;;;;;;;2.60;0.90;;;15.20;93.60;;;;;;4959314;28;20427;-76
2022/05/29 17:12:52;;;;;;;1.00;0.60;;;15.30;91.30;;;;;;4943004;28;20442;-76
2022/05/29 17:15:24;;;;;;;3.10;0.90;;;15.20;91.50;;;;;;4974513;28;20413;-78
2022/05/29 17:17:50;;;;;;;2.07;1.00;;;15.10;94.40;;;;;;4957145;28;20418;-77
2022/05/29 17:20:17;;;;;;;2.00;0.80;;;14.90;96.30;;;;;;4975245;28;20463;-76
2022/05/29 17:23:13;;;;;;;1.73;0.77;;;14.80;96.30;;;;;;4975175;28;20197;-78
2022/05/29 17:26:06;;;;;;;2.37;1.00;;;14.70;96.30;;;;;;4957781;28;20582;-76
2022/05/29 17:28:52;;;;;;;3.70;1.07;;;14.60;96.30;;;;;;4974771;28;20432;-76
2022/05/29 17:31:55;;;;;;;1.93;1.20;;;14.40;91.00;;;;;;4974949;28;20433;-77
2022/05/29 17:34:26;;;;;;;2.90;1.87;;;13.90;86.00;;;;;;4955726;29;20415;-78
2022/05/29 17:37:15;;;;;;;2.87;1.97;;;13.40;88.20;;;;;;4955602;29;20427;-76
2022/05/29 17:39:46;;;;;;;3.60;1.63;;;13.10;89.70;;;;;;4955157;29;20393;-76
2022/05/29 17:42:12;;;;;;;3.87;1.30;;;13.10;90.20;;;;;;4940704;29;20450;-78
2022/05/29 17:44:43;;;;;;;3.17;1.40;;;12.90;91.20;;;;;;4955434;29;20458;-78
2022/05/29 17:47:47;;;;;;;3.70;1.57;;;12.80;90.60;;;;;;4938287;29;20171;-77
2022/05/29 17:50:30;;;;;;;8.37;2.00;;;12.90;91.50;;;;;;4947913;29;20430;-77
2022/05/29 17:53:06;;;;;;;9.87;5.17;;;12.90;91.50;;;;;;4956890;28;20462;-76
2022/05/29 17:55:32;;;;;;;7.63;2.07;;;12.70;92.80;;;;;;4954171;29;20469;-76
2022/05/29 17:58:02;;;;;;;9.37;4.40;;;12.50;94.60;;;;;;4970656;28;20505;-75
2022/05/29 18:00:30;;;;;;;6.97;3.50;;;12.30;94.80;;;;;;4938332;29;20186;-76
2022/05/29 18:02:58;;;;;;;4.03;3.10;;;12.10;95.90;;;;;;4942963;28;20457;-75
2022/05/29 18:05:26;;;;;;;10.03;5.53;;;12.00;96.30;;;;;;4955366;28;20457;-78
2022/05/29 18:07:53;;;;;;;6.20;2.80;;;11.70;96.30;;;;;;4973019;28;20405;-79
2022/05/29 18:10:20;;;;;;;5.50;2.70;;;11.60;96.30;;;;;;4955021;29;20417;-77
2022/05/29 18:12:46;;;;;;;5.37;3.80;;;11.50;96.30;;;;;;4955607;28;20410;-76
2022/05/29 18:15:12;;;;;;;10.83;3.97;;;11.30;96.30;;;;;;4956568;28;20509;-76
2022/05/29 18:17:38;;;;;;;8.50;6.03;;;11.10;96.30;;;;;;4949351;28;20269;-75
2022/05/29 18:20:05;;;;;;;3.30;1.57;;;11.00;96.30;;;;;;4957094;28;20533;-75
2022/05/29 18:22:32;;;;;;;7.80;5.37;;;10.90;96.30;;;;;;4962694;28;20452;-76
2022/05/29 18:24:58;;;;;;;5.57;3.40;;;10.80;96.30;;;;;;4946310;28;20982;-75
2022/05/29 18:27:24;;;;;;;4.00;2.70;;;10.70;96.30;;;;;;4947711;28;20414;-78
2022/05/29 18:29:49;;;;;;;13.70;10.33;;;10.70;96.30;;;;;;4972913;28;20902;-75
2022/05/29 18:32:14;;;;;;;5.57;2.57;;;10.60;96.30;;;;;;4973439;28;20557;-77